»·PEaware :: N2PD KSNA-L70

N2PD :: KSNA-L70

FLIGHT INFORMATION

Flight Status: Arrived
Operator: Privately registered:
United States
More flights under this callsign
Pilot: Daniel P. (20187)
Aircraft: SOCATA TBM-900
(TBM9)
More flights by this aircraft type
Origin: KSNA John Wayne-Orange Co
United States
Destination: L70 Agua Dulce
United States
More flights between these airports :: More routes between these airports
Route: +SLI V597 DARTS V459 KIMMO
File this flight plan on PilotEdge
Remarks:
Altitude:
(Current/Filed)
70ft
Speed:
(Current/Filed)
200kts
Departed: 03-Dec-18 10:10 AM
Arrived: 03-Dec-18 10:33 AM
Distance/Time
Traveled:
54nm/0:23
Distance/Time
To Go:
Arrived

Flight Plot

Page will automatically refresh every two minutes.

Flight plan parsing failed; only flown route is shown


Map Options




Map Legend


Flown Route
Filed Route
Departure Airport
Arrival Airport
Navaid (VOR, NDB)
Fix

Horizontal Profiles

Position Reports

Time Latitude Longitude Heading Altitude Ground
Speed
03-Dec-18 09:45 33.673607 -117.872551 296 59ft 0kts
03-Dec-18 09:46 33.673607 -117.872551 296 59ft 0kts
03-Dec-18 09:47 33.673607 -117.872551 296 59ft 0kts
03-Dec-18 09:48 33.673607 -117.872551 296 59ft 0kts
03-Dec-18 09:49 33.673607 -117.872551 296 59ft 0kts
03-Dec-18 09:50 33.673607 -117.872551 296 59ft 0kts
03-Dec-18 09:51 33.673607 -117.872551 296 59ft 0kts
03-Dec-18 09:52 33.673607 -117.872551 296 59ft 0kts
03-Dec-18 09:53 33.673607 -117.872551 296 59ft 0kts
03-Dec-18 09:54 33.673607 -117.872551 296 59ft 0kts
03-Dec-18 09:55 33.673607 -117.872551 296 59ft 0kts
03-Dec-18 09:56 33.673607 -117.872551 296 59ft 0kts
03-Dec-18 09:57 33.673607 -117.872551 296 59ft 0kts
03-Dec-18 10:00 33.673669 -117.872600 337 59ft 0kts
03-Dec-18 10:01 33.673669 -117.872600 337 59ft 0kts
03-Dec-18 10:02 33.674556 -117.871847 57 59ft 0kts
03-Dec-18 10:03 33.674557 -117.871846 58 59ft 0kts
03-Dec-18 10:04 33.674557 -117.871846 58 59ft 0kts
03-Dec-18 10:05 33.674557 -117.871846 58 59ft 0kts
03-Dec-18 10:06 33.674557 -117.871846 58 59ft 0kts
03-Dec-18 10:07 33.674557 -117.871846 58 59ft 0kts
03-Dec-18 10:08 33.674557 -117.871846 58 59ft 0kts
03-Dec-18 10:09 33.674442 -117.871349 125 59ft 7kts
03-Dec-18 10:10 33.678235 -117.868704 28 59ft 22kts
03-Dec-18 10:11 33.681207 -117.866409 117 59ft 0kts
03-Dec-18 10:12 33.681169 -117.866320 117 59ft 4kts
03-Dec-18 10:13 33.669429 -117.873159 211 305ft 128kts
03-Dec-18 10:14 33.629151 -117.883207 185 2089ft 167kts
03-Dec-18 10:15 33.593926 -117.911695 286 4202ft 190kts
03-Dec-18 10:16 33.633240 -117.947673 331 6313ft 182kts
03-Dec-18 10:17 33.677699 -117.979471 330 7113ft 195kts
03-Dec-18 10:18 33.726576 -118.014302 329 7111ft 209kts
03-Dec-18 10:19 33.777096 -118.050312 329 7018ft 215kts
03-Dec-18 10:20 33.828566 -118.080687 333 6973ft 209kts
03-Dec-18 10:21 33.879150 -118.109796 333 6974ft 203kts
03-Dec-18 10:22 33.931062 -118.139669 333 6976ft 210kts
03-Dec-18 10:23 33.983425 -118.169842 333 6979ft 211kts
03-Dec-18 10:24 34.035333 -118.199791 333 6980ft 212kts
03-Dec-18 10:25 34.088369 -118.230431 333 6977ft 212kts
03-Dec-18 10:26 34.138605 -118.259494 333 6978ft 212kts
03-Dec-18 10:27 34.191330 -118.289921 336 7063ft 210kts
03-Dec-18 10:28 34.249774 -118.297574 354 7067ft 213kts
03-Dec-18 10:29 34.308823 -118.301594 355 6940ft 218kts
03-Dec-18 10:30 34.365901 -118.305425 354 6943ft 200kts
03-Dec-18 10:31 34.416988 -118.307623 359 6206ft 171kts
03-Dec-18 10:32 34.463850 -118.310042 339 4881ft 165kts
03-Dec-18 10:33 34.502553 -118.334430 337 3921ft 150kts
03-Dec-18 10:34 34.526993 -118.309517 67 3887ft 122kts
03-Dec-18 10:35 34.514301 -118.293531 244 3386ft 98kts
03-Dec-18 10:36 34.503162 -118.313696 233 2622ft 5kts
03-Dec-18 10:37 34.503583 -118.312181 52 2635ft 14kts
03-Dec-18 10:38 34.504168 -118.310965 27 2646ft 0kts
03-Dec-18 10:39 34.504168 -118.310965 27 2646ft 0kts
03-Dec-18 10:40 34.504168 -118.310965 27 2646ft 0kts

Navigation Log

Ident Type
Flight plan parsing failed, navigation log unavailable